Time;durP1;ratioP1;P1;durP2;ratioP2;P2;SDS_P1;SDS_P2;PMS_P1;PMS_P2;Temp;Humidity;BMP_temperature;BMP_pressure;BME280_temperature;BME280_humidity;BME280_pressure;Samples;Min_cycle;Max_cycle;Signal;HPM_P1;HPM_P2
2022/10/17 00:01:04;;;;;;;5.15;2.78;;;14.40;72.00;;;;;;5085725;28;20027;-61
2022/10/17 00:03:30;;;;;;;6.10;2.13;;;14.30;72.10;;;;;;5067761;28;20024;-60
2022/10/17 00:05:56;;;;;;;8.77;2.50;;;14.30;72.10;;;;;;5085841;28;20080;-60
2022/10/17 00:08:21;;;;;;;11.15;2.95;;;14.30;71.90;;;;;;5085934;28;20027;-60
2022/10/17 00:11:03;;;;;;;6.80;3.60;;;14.30;71.90;;;;;;5085864;28;20031;-59
2022/10/17 00:13:30;;;;;;;8.82;3.55;;;14.30;72.20;;;;;;5085697;28;20029;-59
2022/10/17 00:15:57;;;;;;;7.32;3.05;;;14.20;71.80;;;;;;5085508;28;20118;-59
2022/10/17 00:18:23;;;;;;;7.60;2.78;;;14.20;71.80;;;;;;5085649;28;20024;-61
2022/10/17 00:20:49;;;;;;;9.52;2.67;;;14.20;71.80;;;;;;5085708;28;20090;-60
2022/10/17 00:23:15;;;;;;;14.65;2.00;;;14.20;71.80;;;;;;5085509;28;20463;-61
2022/10/17 00:25:41;;;;;;;5.60;2.10;;;14.10;71.90;;;;;;5085729;28;20097;-61
2022/10/17 00:28:11;;;;;;;5.25;2.20;;;14.10;71.90;;;;;;5085611;28;20025;-59
2022/10/17 00:30:38;;;;;;;4.60;1.88;;;14.10;71.90;;;;;;5089185;28;20035;-59
2022/10/17 00:33:03;;;;;;;5.72;2.13;;;14.00;71.70;;;;;;5089414;28;20088;-60
2022/10/17 00:35:29;;;;;;;31.15;2.75;;;14.00;71.90;;;;;;5089248;28;20037;-59
2022/10/17 00:37:55;;;;;;;8.27;2.97;;;14.00;72.00;;;;;;5089140;28;20086;-60
2022/10/17 00:40:21;;;;;;;6.38;1.90;;;14.00;72.10;;;;;;5089280;28;20065;-60
2022/10/17 00:42:46;;;;;;;5.80;2.25;;;14.00;72.10;;;;;;5088925;28;20100;-59
2022/10/17 00:45:27;;;;;;;6.47;1.90;;;13.90;71.90;;;;;;5089095;28;20021;-60
2022/10/17 00:48:07;;;;;;;5.43;1.90;;;13.90;72.20;;;;;;5089264;28;20031;-59
2022/10/17 00:50:35;;;;;;;5.70;1.98;;;13.90;71.90;;;;;;5089238;28;20472;-60
2022/10/17 00:53:03;;;;;;;7.93;2.25;;;13.90;71.90;;;;;;5088702;28;20060;-59
2022/10/17 00:55:36;;;;;;;4.93;1.98;;;13.80;71.90;;;;;;5088793;28;20036;-59
2022/10/17 00:58:04;;;;;;;3.97;2.30;;;13.80;72.10;;;;;;5070827;28;20033;-60
2022/10/17 01:00:30;;;;;;;6.10;2.83;;;13.80;71.90;;;;;;5088985;28;20016;-59
2022/10/17 01:02:55;;;;;;;11.57;2.55;;;13.80;71.90;;;;;;5088604;28;20024;-61
2022/10/17 01:05:21;;;;;;;6.80;2.70;;;13.70;71.90;;;;;;5088960;28;20021;-60
2022/10/17 01:07:49;;;;;;;4.38;1.80;;;13.70;72.00;;;;;;5088773;28;20032;-59
2022/10/17 01:10:16;;;;;;;6.05;2.45;;;13.60;72.00;;;;;;5088713;28;20032;-61
2022/10/17 01:13:04;;;;;;;8.27;2.33;;;13.60;72.00;;;;;;5070621;28;20430;-58
2022/10/17 01:15:42;;;;;;;5.07;2.40;;;13.60;72.40;;;;;;5088709;28;20064;-59
2022/10/17 01:18:27;;;;;;;7.68;2.70;;;13.60;72.30;;;;;;5088899;28;20029;-60
2022/10/17 01:21:08;;;;;;;4.30;1.98;;;13.60;72.30;;;;;;5088689;28;20040;-59
2022/10/17 01:24:09;;;;;;;5.35;1.85;;;13.60;72.10;;;;;;5088630;28;20084;-60
2022/10/17 01:26:56;;;;;;;14.77;2.30;;;13.50;72.20;;;;;;5065843;28;20039;-59
2022/10/17 01:29:54;;;;;;;4.80;1.92;;;13.50;72.00;;;;;;5088492;28;20392;-61
2022/10/17 01:32:28;;;;;;;7.88;2.17;;;13.50;72.00;;;;;;5006660;28;20441;-60
2022/10/17 01:34:58;;;;;;;;;;;13.50;71.80;;;;;;5006952;28;20046;-59
2022/10/17 01:37:27;;;;;;;5.80;1.75;;;13.50;72.80;;;;;;5006374;28;19936;-59
2022/10/17 01:39:56;;;;;;;4.38;1.70;;;13.40;72.20;;;;;;5006373;28;20081;-60
2022/10/17 01:42:29;;;;;;;10.05;2.13;;;13.40;71.90;;;;;;5006367;28;20031;-58
2022/10/17 01:45:18;;;;;;;2.60;1.88;;;13.30;72.20;;;;;;5006333;28;20038;-60
2022/10/17 01:47:47;;;;;;;6.07;2.03;;;13.30;72.50;;;;;;5006453;28;20436;-60
2022/10/17 01:50:18;;;;;;;4.63;1.90;;;13.30;72.00;;;;;;4990239;28;20030;-60
2022/10/17 01:52:51;;;;;;;6.05;1.67;;;13.30;72.00;;;;;;5006274;28;20054;-61
2022/10/17 01:55:30;;;;;;;7.90;1.95;;;13.20;72.00;;;;;;5006061;28;20046;-60
2022/10/17 01:58:10;;;;;;;4.90;1.73;;;13.20;72.30;;;;;;5006126;28;20026;-59
2022/10/17 02:00:38;;;;;;;11.02;2.17;;;13.20;72.70;;;;;;5006107;28;20023;-59
2022/10/17 02:03:08;;;;;;;10.88;2.47;;;13.20;72.40;;;;;;5006149;28;20155;-59
2022/10/17 02:05:41;;;;;;;8.35;2.00;;;13.20;72.20;;;;;;4989861;28;20029;-60
2022/10/17 02:08:07;;;;;;;2.50;1.70;;;13.10;72.30;;;;;;5027062;28;20033;-59
2022/10/17 02:10:54;;;;;;;5.43;2.40;;;13.10;72.00;;;;;;5087098;28;20029;-61
2022/10/17 02:13:26;;;;;;;5.38;1.85;;;13.10;72.00;;;;;;5069563;28;20137;-60
2022/10/17 02:16:04;;;;;;;4.28;1.92;;;13.10;71.90;;;;;;5087734;28;20040;-60
2022/10/17 02:18:51;;;;;;;7.18;2.13;;;13.10;71.90;;;;;;5087711;28;20021;-59
2022/10/17 02:21:26;;;;;;;3.00;1.58;;;13.00;71.90;;;;;;5087686;28;20032;-60
2022/10/17 02:24:10;;;;;;;7.72;1.75;;;13.00;71.80;;;;;;5087082;28;20028;-60
2022/10/17 02:27:02;;;;;;;;;;;13.00;72.50;;;;;;5087745;28;20080;-60
2022/10/17 02:29:38;;;;;;;9.45;2.40;;;13.00;72.60;;;;;;5056001;28;20358;-61
2022/10/17 02:32:12;;;;;;;3.47;1.33;;;12.90;71.90;;;;;;5087165;28;20056;-59
2022/10/17 02:34:45;;;;;;;8.63;2.10;;;12.90;72.30;;;;;;5086541;28;20037;-60
2022/10/17 02:37:15;;;;;;;9.57;1.88;;;12.90;72.30;;;;;;5087230;28;20151;-59
2022/10/17 02:39:43;;;;;;;2.53;1.67;;;12.90;72.30;;;;;;5086926;28;20548;-59
2022/10/17 02:42:10;;;;;;;9.27;1.60;;;12.80;72.30;;;;;;5068871;28;20025;-60
2022/10/17 02:44:39;;;;;;;2.53;1.63;;;12.80;72.30;;;;;;5087266;28;20021;-60
2022/10/17 02:47:29;;;;;;;7.28;1.60;;;12.80;72.30;;;;;;5086909;28;20509;-60
2022/10/17 02:49:57;;;;;;;5.78;1.70;;;12.80;72.80;;;;;;5086884;28;20333;-60
2022/10/17 02:52:50;;;;;;;8.40;1.70;;;12.70;72.60;;;;;;5085739;28;20055;-59
2022/10/17 02:55:27;;;;;;;10.30;1.95;;;12.70;72.70;;;;;;5086651;28;20032;-60
2022/10/17 02:57:59;;;;;;;3.92;1.95;;;12.70;72.50;;;;;;5086718;28;20545;-59
2022/10/17 03:00:28;;;;;;;5.07;2.00;;;12.70;72.40;;;;;;5087026;28;20031;-59
2022/10/17 03:02:54;;;;;;;3.25;1.80;;;12.70;72.40;;;;;;5086753;28;20052;-60
2022/10/17 03:05:24;;;;;;;2.65;1.65;;;12.70;72.40;;;;;;5086836;28;20368;-60
2022/10/17 03:07:50;;;;;;;8.70;1.60;;;12.60;72.40;;;;;;5086766;28;20104;-60
2022/10/17 03:10:16;;;;;;;5.18;2.15;;;12.60;72.50;;;;;;5086391;28;20039;-59
2022/10/17 03:12:42;;;;;;;3.72;2.22;;;12.60;72.60;;;;;;5086343;28;20017;-59
2022/10/17 03:15:08;;;;;;;12.20;1.83;;;12.60;72.70;;;;;;5086336;28;20033;-60
2022/10/17 03:17:34;;;;;;;6.05;1.75;;;12.60;72.60;;;;;;5086303;28;20056;-59
2022/10/17 03:20:00;;;;;;;6.85;2.00;;;12.50;72.50;;;;;;5068277;28;20024;-60
2022/10/17 03:22:26;;;;;;;2.50;1.70;;;12.50;72.60;;;;;;5086331;28;20052;-60
2022/10/17 03:24:51;;;;;;;4.28;1.75;;;12.50;72.80;;;;;;5086236;28;20036;-59
2022/10/17 03:27:17;;;;;;;8.00;1.58;;;12.50;72.80;;;;;;5086371;28;20063;-58
2022/10/17 03:29:43;;;;;;;6.90;2.30;;;12.50;72.80;;;;;;5086087;28;20020;-60
2022/10/17 03:32:09;;;;;;;4.53;1.90;;;12.50;72.80;;;;;;5086346;28;20088;-59
2022/10/17 03:34:35;;;;;;;8.45;1.83;;;12.50;72.90;;;;;;5086401;28;20025;-61
2022/10/17 03:37:00;;;;;;;7.90;2.08;;;12.50;73.20;;;;;;5086184;28;20028;-60
2022/10/17 03:39:26;;;;;;;7.75;2.28;;;12.50;73.30;;;;;;5088192;28;20021;-60
2022/10/17 03:41:52;;;;;;;2.85;1.85;;;12.50;73.50;;;;;;5086966;28;20029;-62
2022/10/17 03:44:17;;;;;;;6.40;1.67;;;12.40;73.50;;;;;;5085650;28;20041;-62
2022/10/17 03:46:43;;;;;;;7.78;2.20;;;12.50;73.80;;;;;;5086079;28;20028;-59
2022/10/17 03:49:09;;;;;;;2.83;2.10;;;12.40;73.80;;;;;;5085886;28;20021;-59
2022/10/17 03:51:35;;;;;;;10.10;2.00;;;12.50;73.90;;;;;;5085226;28;20055;-60
2022/10/17 03:54:01;;;;;;;12.27;1.77;;;12.50;73.80;;;;;;5067791;28;20142;-59
2022/10/17 03:56:27;;;;;;;3.75;2.00;;;12.40;73.50;;;;;;5085652;28;20036;-59
2022/10/17 03:58:54;;;;;;;2.33;1.73;;;12.40;73.30;;;;;;5085607;28;20028;-61
2022/10/17 04:01:20;;;;;;;10.18;2.35;;;12.40;73.10;;;;;;5085850;28;20099;-60
2022/10/17 04:03:52;;;;;;;3.83;1.80;;;12.40;73.10;;;;;;5087037;28;20078;-60
2022/10/17 04:06:19;;;;;;;10.88;2.35;;;12.40;73.30;;;;;;5089609;28;20024;-60
2022/10/17 04:08:46;;;;;;;6.72;2.40;;;12.40;73.30;;;;;;5089872;28;20059;-60
2022/10/17 04:11:17;;;;;;;4.97;2.15;;;12.40;73.50;;;;;;5089608;28;20028;-59
2022/10/17 04:13:44;;;;;;;6.75;2.50;;;12.40;74.10;;;;;;5089713;28;20074;-60
2022/10/17 04:16:13;;;;;;;8.88;2.50;;;12.30;73.80;;;;;;5089756;28;20044;-59
2022/10/17 04:18:39;;;;;;;11.63;2.38;;;12.30;73.60;;;;;;5071532;28;20583;-60
2022/10/17 04:21:06;;;;;;;5.47;2.22;;;12.30;73.50;;;;;;5089578;28;20028;-59
2022/10/17 04:23:32;;;;;;;7.15;2.05;;;12.20;73.40;;;;;;5089638;28;20359;-61
2022/10/17 04:26:00;;;;;;;9.02;2.10;;;12.30;73.40;;;;;;5089213;28;20096;-61
2022/10/17 04:28:27;;;;;;;8.18;2.03;;;12.20;73.30;;;;;;5089540;28;20093;-59
2022/10/17 04:31:01;;;;;;;8.00;2.30;;;12.20;73.30;;;;;;5089402;28;20051;-59
2022/10/17 04:33:27;;;;;;;3.40;2.10;;;12.20;73.30;;;;;;5089102;28;20122;-60
2022/10/17 04:36:01;;;;;;;6.60;2.33;;;12.20;73.10;;;;;;5089235;28;20038;-60
2022/10/17 04:38:28;;;;;;;4.90;2.40;;;12.10;73.20;;;;;;5089357;28;20028;-60
2022/10/17 04:40:55;;;;;;;6.00;2.90;;;12.10;73.10;;;;;;5089216;28;20364;-60
2022/10/17 04:43:21;;;;;;;6.57;2.47;;;12.10;73.30;;;;;;5089435;28;20103;-59
2022/10/17 04:45:47;;;;;;;6.53;2.80;;;12.10;73.60;;;;;;5089167;28;20078;-59
2022/10/17 04:48:12;;;;;;;4.28;2.55;;;12.10;73.70;;;;;;5089165;28;20028;-59
2022/10/17 04:50:38;;;;;;;7.47;3.38;;;12.00;73.60;;;;;;5089379;28;20051;-58
2022/10/17 04:53:04;;;;;;;8.85;3.25;;;12.00;73.50;;;;;;5070610;28;20041;-61
2022/10/17 04:55:30;;;;;;;4.90;3.25;;;12.00;73.50;;;;;;5089187;28;20028;-60
2022/10/17 04:57:55;;;;;;;8.10;3.50;;;12.00;73.60;;;;;;5071398;28;20020;-59
2022/10/17 05:00:21;;;;;;;7.18;3.13;;;12.00;73.70;;;;;;5088844;28;20059;-62
2022/10/17 05:02:47;;;;;;;4.72;3.28;;;12.00;73.70;;;;;;5088578;28;20052;-60
2022/10/17 05:05:12;;;;;;;6.03;3.22;;;12.00;73.60;;;;;;5070967;28;20024;-58
2022/10/17 05:07:41;;;;;;;5.38;2.80;;;11.90;73.50;;;;;;5088665;28;20035;-59
2022/10/17 05:10:07;;;;;;;9.77;3.00;;;11.90;73.60;;;;;;5089060;28;20030;-59
2022/10/17 05:12:33;;;;;;;12.75;3.03;;;11.90;73.60;;;;;;5070775;28;20024;-59
2022/10/17 05:14:58;;;;;;;4.18;2.60;;;11.90;73.60;;;;;;5070124;28;20052;-58
2022/10/17 05:17:24;;;;;;;5.00;2.88;;;11.90;73.40;;;;;;5088872;28;20024;-61
2022/10/17 05:19:50;;;;;;;5.60;2.63;;;11.90;73.40;;;;;;5088546;28;20082;-59
2022/10/17 05:22:15;;;;;;;4.25;3.00;;;11.80;73.40;;;;;;5088056;28;20029;-60
2022/10/17 05:24:41;;;;;;;8.82;3.10;;;11.80;73.40;;;;;;5070438;28;20094;-60
2022/10/17 05:27:07;;;;;;;7.03;3.22;;;11.80;73.40;;;;;;5088068;28;20082;-61
2022/10/17 05:29:33;;;;;;;8.65;3.63;;;11.80;73.50;;;;;;5088263;28;20030;-61
2022/10/17 05:31:59;;;;;;;6.93;3.15;;;11.80;73.50;;;;;;5087879;28;20487;-60
2022/10/17 05:34:25;;;;;;;5.80;3.42;;;11.80;73.50;;;;;;5088237;28;20036;-60
2022/10/17 05:36:50;;;;;;;8.85;2.80;;;11.80;73.50;;;;;;5088121;28;20412;-61
2022/10/17 05:39:18;;;;;;;6.72;2.50;;;11.80;73.50;;;;;;5088078;28;20036;-60
2022/10/17 05:41:45;;;;;;;4.75;2.35;;;11.80;73.60;;;;;;5088140;28;20020;-61
2022/10/17 05:44:11;;;;;;;8.88;2.50;;;11.80;73.70;;;;;;5070536;28;20482;-59
2022/10/17 05:46:36;;;;;;;8.23;2.03;;;11.70;73.70;;;;;;5095359;28;20035;-60
2022/10/17 05:49:02;;;;;;;3.97;2.08;;;11.70;73.60;;;;;;5098683;28;20008;-60
2022/10/17 05:51:28;;;;;;;5.80;2.03;;;11.70;73.60;;;;;;5098429;28;20029;-60
2022/10/17 05:53:53;;;;;;;10.55;1.80;;;11.70;73.60;;;;;;5097827;28;20049;-59
2022/10/17 05:56:19;;;;;;;6.25;1.67;;;11.70;73.50;;;;;;5077815;28;20045;-60
2022/10/17 05:58:46;;;;;;;4.85;2.40;;;11.70;73.50;;;;;;5088003;28;20036;-59
2022/10/17 06:01:12;;;;;;;10.30;3.00;;;11.70;73.60;;;;;;5087818;28;20012;-60
2022/10/17 06:03:38;;;;;;;6.07;2.40;;;11.70;73.50;;;;;;5069753;28;20060;-60
2022/10/17 06:06:12;;;;;;;6.85;2.75;;;11.70;73.60;;;;;;5087379;28;20075;-59
2022/10/17 06:08:38;;;;;;;8.80;3.05;;;11.70;73.80;;;;;;5087892;28;20036;-60
2022/10/17 06:11:04;;;;;;;9.20;3.30;;;11.70;73.80;;;;;;5087612;28;20029;-61
2022/10/17 06:13:30;;;;;;;8.95;2.75;;;11.70;74.00;;;;;;5087692;28;20112;-59
2022/10/17 06:15:56;;;;;;;8.95;3.50;;;11.70;74.10;;;;;;5087148;28;20057;-59
2022/10/17 06:18:22;;;;;;;13.02;2.72;;;11.70;74.20;;;;;;5087286;28;20092;-60
2022/10/17 06:20:47;;;;;;;10.43;3.00;;;11.70;74.20;;;;;;5087269;28;20020;-60
2022/10/17 06:23:13;;;;;;;5.97;2.80;;;11.80;74.30;;;;;;5087905;28;20528;-61
2022/10/17 06:25:40;;;;;;;3.78;2.40;;;11.80;74.40;;;;;;5086872;28;20104;-59
2022/10/17 06:28:06;;;;;;;8.13;3.40;;;11.90;74.60;;;;;;5068833;28;20059;-59
2022/10/17 06:30:32;;;;;;;9.73;3.92;;;11.90;74.70;;;;;;5087053;28;20024;-60
2022/10/17 06:32:57;;;;;;;9.20;4.60;;;12.00;74.90;;;;;;5087001;28;20028;-60
2022/10/17 06:35:23;;;;;;;9.75;5.10;;;12.00;74.90;;;;;;5086942;28;20036;-60
2022/10/17 06:37:49;;;;;;;8.70;4.28;;;12.10;75.10;;;;;;5086810;28;20055;-61
2022/10/17 06:40:16;;;;;;;5.15;4.05;;;12.20;75.10;;;;;;5086683;28;20020;-60
2022/10/17 06:42:42;;;;;;;27.55;3.90;;;12.20;75.10;;;;;;5087025;28;20065;-60
2022/10/17 06:45:08;;;;;;;7.28;3.25;;;12.30;75.20;;;;;;5086480;28;20527;-60
2022/10/17 06:47:34;;;;;;;5.80;2.80;;;12.40;75.20;;;;;;5086565;28;20025;-60
2022/10/17 06:50:00;;;;;;;7.05;2.95;;;12.50;75.20;;;;;;5086820;28;20021;-61
2022/10/17 06:52:26;;;;;;;4.43;2.50;;;12.60;75.20;;;;;;5068723;28;20063;-61
2022/10/17 06:54:51;;;;;;;7.55;2.60;;;12.60;75.20;;;;;;5086582;28;20410;-59
2022/10/17 06:57:17;;;;;;;8.05;3.15;;;12.70;75.20;;;;;;5086679;28;20039;-59
2022/10/17 06:59:43;;;;;;;8.25;3.38;;;12.80;75.10;;;;;;5086335;28;20032;-59
2022/10/17 07:02:10;;;;;;;8.80;3.78;;;12.90;75.10;;;;;;5086578;28;20021;-61
2022/10/17 07:04:36;;;;;;;9.27;3.92;;;12.90;75.10;;;;;;5086163;28;20051;-60
2022/10/17 07:07:02;;;;;;;10.45;4.20;;;13.00;75.10;;;;;;5086395;28;20024;-59
2022/10/17 07:09:29;;;;;;;12.77;3.58;;;13.10;75.00;;;;;;5086815;28;20021;-60
2022/10/17 07:11:54;;;;;;;5.82;2.42;;;13.20;75.80;;;;;;5068341;28;20025;-61
2022/10/17 07:14:20;;;;;;;3.75;2.00;;;13.30;75.20;;;;;;5086252;28;20035;-59
2022/10/17 07:16:46;;;;;;;9.35;2.42;;;13.40;75.20;;;;;;5086309;28;20033;-60
2022/10/17 07:19:11;;;;;;;2.40;2.05;;;13.50;75.20;;;;;;5086424;28;20028;-60
2022/10/17 07:21:37;;;;;;;3.70;2.22;;;13.60;75.30;;;;;;5086477;28;20031;-60
2022/10/17 07:24:04;;;;;;;7.90;2.40;;;13.70;75.30;;;;;;5068250;28;20033;-60
2022/10/17 07:26:30;;;;;;;11.05;2.58;;;13.80;75.20;;;;;;5085953;28;20039;-60
2022/10/17 07:28:56;;;;;;;11.55;2.35;;;13.90;75.10;;;;;;5086215;28;20084;-59
2022/10/17 07:31:22;;;;;;;6.82;2.35;;;14.00;75.10;;;;;;5085925;28;20048;-60
2022/10/17 07:33:48;;;;;;;10.35;2.42;;;14.10;75.20;;;;;;5068600;28;20029;-60
2022/10/17 07:36:15;;;;;;;3.92;2.15;;;14.30;75.10;;;;;;5086045;28;20042;-61
2022/10/17 07:38:41;;;;;;;5.95;2.33;;;14.40;75.00;;;;;;5085731;28;20024;-60
2022/10/17 07:41:08;;;;;;;3.58;2.13;;;14.50;74.80;;;;;;5086175;28;20367;-60
2022/10/17 07:43:35;;;;;;;13.02;2.33;;;14.70;74.70;;;;;;5051152;28;20104;-59
2022/10/17 07:46:02;;;;;;;5.30;2.10;;;14.80;74.50;;;;;;5085780;28;20013;-60
2022/10/17 07:48:28;;;;;;;10.60;2.55;;;14.90;74.30;;;;;;5086116;28;20020;-60
2022/10/17 07:50:54;;;;;;;5.18;2.40;;;15.10;74.20;;;;;;5085738;28;20084;-59
2022/10/17 07:53:20;;;;;;;6.90;2.42;;;15.20;74.10;;;;;;5067607;28;20048;-59
2022/10/17 07:55:46;;;;;;;4.97;2.40;;;15.40;74.00;;;;;;5086084;28;20029;-60
2022/10/17 07:58:13;;;;;;;7.53;2.40;;;15.50;73.90;;;;;;5085569;28;20029;-60
2022/10/17 08:00:38;;;;;;;9.25;2.70;;;15.60;73.80;;;;;;5067641;28;20029;-61
2022/10/17 08:03:05;;;;;;;8.90;2.28;;;15.70;73.70;;;;;;5085862;28;20031;-60
2022/10/17 08:05:32;;;;;;;3.90;2.33;;;15.80;73.50;;;;;;5085552;28;20025;-61
2022/10/17 08:07:58;;;;;;;6.13;1.90;;;15.90;73.40;;;;;;5085704;28;20024;-60
2022/10/17 08:10:26;;;;;;;8.50;2.53;;;16.10;73.30;;;;;;5067395;28;20021;-60
2022/10/17 08:12:53;;;;;;;5.88;2.45;;;16.20;73.10;;;;;;5085430;28;20027;-61
2022/10/17 08:15:19;;;;;;;10.68;2.75;;;16.30;73.00;;;;;;5067444;28;20043;-61
2022/10/17 08:17:45;;;;;;;7.07;2.38;;;16.50;72.90;;;;;;5085123;28;20025;-59
2022/10/17 08:20:11;;;;;;;6.93;2.35;;;16.60;72.60;;;;;;5067362;28;20089;-60
2022/10/17 08:22:37;;;;;;;7.00;2.60;;;16.70;72.40;;;;;;5085629;28;20020;-60
2022/10/17 08:25:03;;;;;;;11.30;2.38;;;16.80;72.30;;;;;;5085316;28;20158;-60
2022/10/17 08:27:29;;;;;;;8.80;2.35;;;17.00;72.30;;;;;;5085583;28;20029;-61
2022/10/17 08:29:54;;;;;;;4.40;2.15;;;17.10;72.10;;;;;;5085745;28;20076;-60
2022/10/17 08:32:23;;;;;;;7.80;3.33;;;17.20;72.60;;;;;;5085424;28;20051;-60
2022/10/17 08:34:49;;;;;;;4.88;2.80;;;17.40;71.80;;;;;;5085574;28;20042;-61
2022/10/17 08:37:15;;;;;;;10.20;3.15;;;17.50;71.60;;;;;;5085210;28;20194;-61
2022/10/17 08:39:41;;;;;;;5.80;2.90;;;17.70;71.50;;;;;;5067136;28;20062;-60
2022/10/17 08:42:22;;;;;;;5.28;3.00;;;17.70;71.20;;;;;;5085178;28;20084;-60
2022/10/17 08:45:10;;;;;;;5.85;3.00;;;17.80;71.00;;;;;;5085478;28;20035;-61
2022/10/17 08:47:41;;;;;;;7.70;3.40;;;18.00;70.60;;;;;;5085524;28;20085;-60
2022/10/17 08:50:49;;;;;;;7.65;3.28;;;18.10;70.80;;;;;;5086969;28;20505;-60
2022/10/17 08:53:18;;;;;;;4.57;2.67;;;18.20;71.00;;;;;;5089090;28;20056;-59
2022/10/17 08:55:49;;;;;;;8.35;3.05;;;18.40;70.90;;;;;;5088702;28;20068;-60
2022/10/17 08:58:21;;;;;;;10.45;3.38;;;18.50;70.40;;;;;;5088730;28;20029;-63
2022/10/17 09:01:16;;;;;;;10.27;2.78;;;18.60;70.40;;;;;;5070776;28;20426;-60
2022/10/17 09:04:07;;;;;;;8.68;2.70;;;18.80;70.50;;;;;;5074260;28;20045;-60
2022/10/17 09:06:42;;;;;;;6.22;2.95;;;18.90;70.00;;;;;;5088849;28;20024;-59
2022/10/17 09:09:26;;;;;;;6.97;2.78;;;19.00;70.00;;;;;;5089430;28;20027;-60
2022/10/17 09:12:36;;;;;;;8.00;2.80;;;19.20;69.40;;;;;;5098347;28;20044;-61
2022/10/17 09:15:12;;;;;;;11.95;2.78;;;19.40;69.20;;;;;;5015359;28;20127;-60
2022/10/17 09:17:55;;;;;;;8.80;2.75;;;19.50;69.00;;;;;;5014645;28;20046;-61
2022/10/17 09:20:29;;;;;;;11.23;3.08;;;19.60;68.80;;;;;;5011982;28;20031;-61
2022/10/17 09:23:06;;;;;;;7.20;2.85;;;19.70;68.90;;;;;;5007067;28;20034;-61
2022/10/17 09:25:40;;;;;;;4.10;2.65;;;19.80;68.30;;;;;;4990142;28;20124;-60
2022/10/17 09:28:09;;;;;;;14.27;3.08;;;19.90;68.50;;;;;;5006485;28;20042;-60
2022/10/17 09:30:46;;;;;;;6.05;2.75;;;20.00;68.50;;;;;;4990185;28;20023;-61
2022/10/17 09:33:17;;;;;;;8.57;2.55;;;20.00;68.30;;;;;;5006616;28;20065;-60
2022/10/17 09:35:44;;;;;;;5.80;2.80;;;20.10;68.20;;;;;;4990101;28;20078;-61
2022/10/17 09:38:22;;;;;;;6.85;2.40;;;20.20;67.90;;;;;;5006053;28;20034;-60
2022/10/17 09:40:56;;;;;;;13.35;3.25;;;20.30;67.50;;;;;;5006132;28;20101;-61
2022/10/17 09:43:23;;;;;;;7.97;2.65;;;20.40;67.40;;;;;;5006801;28;20390;-63
2022/10/17 09:46:20;;;;;;;6.57;3.05;;;20.50;67.70;;;;;;5052636;28;20044;-60
2022/10/17 09:48:59;;;;;;;12.93;2.95;;;20.50;67.00;;;;;;5079727;28;20036;-61
2022/10/17 09:51:26;;;;;;;9.57;3.00;;;20.60;67.30;;;;;;5087950;28;20044;-60
2022/10/17 09:53:59;;;;;;;6.25;2.53;;;20.70;67.20;;;;;;5087321;28;20102;-60
2022/10/17 09:56:25;;;;;;;7.60;2.92;;;20.80;66.90;;;;;;5087747;28;20036;-60
2022/10/17 09:58:56;;;;;;;7.57;2.67;;;20.80;67.00;;;;;;5087617;28;20040;-60
2022/10/17 10:01:30;;;;;;;7.43;2.42;;;20.80;66.70;;;;;;5087315;28;20032;-60
2022/10/17 10:04:15;;;;;;;13.07;2.28;;;20.90;66.60;;;;;;5087664;28;20017;-60
2022/10/17 10:07:04;;;;;;;3.80;2.35;;;20.90;66.90;;;;;;5087559;28;20043;-60
2022/10/17 10:09:31;;;;;;;8.60;3.08;;;21.00;66.30;;;;;;5087567;28;20070;-61
2022/10/17 10:12:00;;;;;;;4.97;1.98;;;21.00;66.10;;;;;;5087434;28;20032;-59
2022/10/17 10:14:34;;;;;;;6.03;2.30;;;21.00;66.60;;;;;;5087310;28;20035;-60
2022/10/17 10:17:02;;;;;;;7.32;2.00;;;21.10;67.20;;;;;;5087318;28;20039;-60
2022/10/17 10:19:31;;;;;;;10.07;2.30;;;21.20;67.30;;;;;;5087497;28;20036;-59
2022/10/17 10:21:59;;;;;;;4.68;2.25;;;21.30;67.40;;;;;;5087224;28;20024;-61
2022/10/17 10:24:26;;;;;;;4.07;2.20;;;21.50;67.40;;;;;;5087245;28;20110;-60
2022/10/17 10:26:54;;;;;;;10.07;2.50;;;21.60;67.30;;;;;;5087252;28;20073;-59
2022/10/17 10:29:39;;;;;;;3.13;2.40;;;21.70;67.00;;;;;;5087063;28;20025;-61
2022/10/17 10:32:22;;;;;;;14.48;2.75;;;21.90;66.40;;;;;;5087021;28;20487;-61
2022/10/17 10:34:50;;;;;;;3.60;2.40;;;22.00;66.40;;;;;;5086804;28;20032;-61
2022/10/17 10:37:33;;;;;;;6.55;2.67;;;22.20;66.80;;;;;;5086583;28;20118;-60
2022/10/17 10:40:02;;;;;;;4.40;2.40;;;22.30;65.70;;;;;;5086770;28;20020;-60
2022/10/17 10:42:32;;;;;;;6.38;2.60;;;22.40;65.60;;;;;;5086903;28;20073;-60
2022/10/17 10:45:16;;;;;;;7.00;2.65;;;22.50;65.00;;;;;;5086653;28;20028;-60
2022/10/17 10:48:05;;;;;;;6.35;3.13;;;22.60;64.70;;;;;;5067963;28;20054;-60
2022/10/17 10:50:41;;;;;;;6.20;3.03;;;22.70;63.60;;;;;;5046712;28;20064;-60
2022/10/17 10:53:15;;;;;;;4.07;2.92;;;22.70;64.30;;;;;;5086356;28;20052;-60
2022/10/17 10:55:53;;;;;;;7.10;3.20;;;22.80;64.20;;;;;;5086444;28;20048;-60
2022/10/17 10:58:33;;;;;;;4.97;2.90;;;22.80;63.20;;;;;;5068691;28;20056;-60
2022/10/17 11:01:08;;;;;;;6.43;2.72;;;22.90;62.80;;;;;;5086383;28;20052;-60
2022/10/17 11:03:51;;;;;;;6.25;3.08;;;22.90;62.80;;;;;;5086194;28;20403;-62
2022/10/17 11:06:27;;;;;;;9.30;3.83;;;23.00;62.80;;;;;;5086088;28;20485;-60
2022/10/17 11:09:13;;;;;;;6.78;3.45;;;23.10;62.90;;;;;;5086142;28;20037;-60
2022/10/17 11:11:52;;;;;;;11.68;4.15;;;23.10;61.70;;;;;;5085976;28;20028;-60
2022/10/17 11:14:43;;;;;;;17.15;3.45;;;23.10;61.40;;;;;;5068065;28;20038;-61
2022/10/17 11:17:33;;;;;;;8.27;3.65;;;23.20;61.50;;;;;;5086034;28;20033;-60
2022/10/17 11:20:08;;;;;;;8.60;3.45;;;23.20;61.20;;;;;;5085880;28;20028;-61
2022/10/17 11:22:43;;;;;;;7.38;4.07;;;23.10;61.20;;;;;;5068086;28;20020;-61
2022/10/17 11:25:11;;;;;;;11.48;4.25;;;23.20;61.40;;;;;;5086210;28;20025;-61
2022/10/17 11:27:37;;;;;;;20.02;4.18;;;23.20;62.00;;;;;;5067930;28;20032;-61
2022/10/17 11:30:04;;;;;;;6.57;4.05;;;23.20;62.20;;;;;;5085902;28;20032;-61
2022/10/17 11:32:41;;;;;;;9.88;4.65;;;23.30;62.20;;;;;;5086073;28;20024;-60
2022/10/17 11:35:23;;;;;;;7.55;3.92;;;23.50;62.10;;;;;;5085617;28;20096;-59
2022/10/17 11:37:59;;;;;;;8.82;3.78;;;23.60;62.10;;;;;;5085745;28;20036;-61
2022/10/17 11:40:32;;;;;;;9.70;4.00;;;23.70;61.80;;;;;;5085748;28;20024;-61
2022/10/17 11:43:02;;;;;;;10.90;3.80;;;23.80;62.20;;;;;;5085878;28;20024;-60
2022/10/17 11:45:34;;;;;;;11.95;4.75;;;23.90;61.20;;;;;;5085776;28;20032;-60
2022/10/17 11:48:35;;;;;;;9.02;3.65;;;24.10;61.20;;;;;;5067650;28;20048;-61
2022/10/17 11:51:12;;;;;;;7.55;3.15;;;24.20;61.20;;;;;;5085924;28;20139;-61
2022/10/17 11:53:46;;;;;;;10.98;3.67;;;24.30;61.10;;;;;;5085592;28;20072;-60
2022/10/17 11:56:17;;;;;;;8.35;3.72;;;24.40;61.00;;;;;;5085642;28;20033;-60
2022/10/17 11:58:57;;;;;;;6.22;3.20;;;24.40;61.20;;;;;;5085891;28;20035;-60
2022/10/17 12:01:49;;;;;;;5.50;3.15;;;24.50;60.80;;;;;;5085926;28;20025;-60
2022/10/17 12:04:21;;;;;;;9.70;3.35;;;24.70;59.60;;;;;;5080019;28;20033;-60
2022/10/17 12:07:05;;;;;;;9.43;3.10;;;24.70;60.00;;;;;;5071354;28;20081;-60
2022/10/17 12:09:49;;;;;;;6.97;2.78;;;24.80;60.30;;;;;;5087761;28;20029;-62
2022/10/17 12:12:27;;;;;;;9.43;2.80;;;25.00;59.50;;;;;;5086173;28;20024;-62
2022/10/17 12:14:53;;;;;;;6.78;2.63;;;25.00;59.60;;;;;;5085417;28;20036;-61
2022/10/17 12:17:29;;;;;;;5.00;2.88;;;25.10;60.00;;;;;;5085523;28;20043;-61
2022/10/17 12:20:23;;;;;;;8.30;3.10;;;25.20;59.50;;;;;;5085634;28;20013;-61
2022/10/17 12:22:56;;;;;;;5.45;2.50;;;25.30;58.80;;;;;;5085285;28;20029;-60
2022/10/17 12:25:28;;;;;;;5.43;2.58;;;25.40;59.40;;;;;;5087708;28;20029;-61
2022/10/17 12:28:06;;;;;;;8.43;2.53;;;25.40;59.50;;;;;;5089271;28;20048;-61
2022/10/17 12:30:32;;;;;;;9.43;3.10;;;25.50;59.50;;;;;;5089157;28;20044;-61
2022/10/17 12:33:21;;;;;;;4.63;2.30;;;25.50;59.20;;;;;;5089112;28;20218;-61
2022/10/17 12:35:50;;;;;;;2.83;2.00;;;25.60;58.70;;;;;;5070993;28;20056;-62
2022/10/17 12:38:16;;;;;;;2.78;2.20;;;25.70;58.60;;;;;;5089241;28;20020;-61
2022/10/17 12:40:42;;;;;;;6.70;2.40;;;25.80;59.00;;;;;;5088868;28;20029;-61
2022/10/17 12:43:14;;;;;;;4.80;2.03;;;25.80;58.70;;;;;;5089114;28;20032;-61
2022/10/17 12:45:51;;;;;;;7.95;2.15;;;25.80;58.10;;;;;;5088947;28;20107;-60
2022/10/17 12:48:40;;;;;;;2.80;1.80;;;25.90;58.00;;;;;;5088669;28;20025;-60
2022/10/17 12:51:08;;;;;;;4.55;1.95;;;26.00;57.70;;;;;;5078003;28;20166;-61
2022/10/17 12:53:45;;;;;;;11.45;2.05;;;26.10;58.50;;;;;;5088408;28;20383;-61
2022/10/17 12:56:38;;;;;;;5.32;2.00;;;26.20;58.10;;;;;;5088587;28;20025;-60
2022/10/17 12:59:14;;;;;;;10.40;2.10;;;26.30;57.50;;;;;;5088675;28;20021;-60
2022/10/17 13:01:45;;;;;;;5.18;2.08;;;26.40;57.50;;;;;;5088591;28;20024;-61
2022/10/17 13:04:11;;;;;;;7.18;2.00;;;26.50;57.50;;;;;;5088811;28;20021;-60
2022/10/17 13:06:44;;;;;;;7.78;1.92;;;26.60;57.80;;;;;;5088365;28;20017;-61